sensor_id;sensor_type;location;lat;lon;timestamp;P1;durP1;ratioP1;P2;durP2;ratioP2
4051;SDS011;2040;50.924;11.604;2023-04-01T00:00:54;1.43;;;0.77;;
4051;SDS011;2040;50.924;11.604;2023-04-01T00:03:21;1.33;;;0.80;;
4051;SDS011;2040;50.924;11.604;2023-04-01T00:05:47;5.10;;;0.90;;
4051;SDS011;2040;50.924;11.604;2023-04-01T00:08:16;2.57;;;1.20;;
4051;SDS011;2040;50.924;11.604;2023-04-01T00:10:41;5.40;;;1.33;;
4051;SDS011;2040;50.924;11.604;2023-04-01T00:13:07;1.37;;;0.90;;
4051;SDS011;2040;50.924;11.604;2023-04-01T00:15:34;2.00;;;0.70;;
4051;SDS011;2040;50.924;11.604;2023-04-01T00:17:59;1.00;;;0.60;;
4051;SDS011;2040;50.924;11.604;2023-04-01T00:20:26;1.37;;;1.03;;
4051;SDS011;2040;50.924;11.604;2023-04-01T00:22:52;1.20;;;0.63;;
4051;SDS011;2040;50.924;11.604;2023-04-01T00:25:17;1.53;;;0.70;;
4051;SDS011;2040;50.924;11.604;2023-04-01T00:27:43;3.00;;;0.87;;
4051;SDS011;2040;50.924;11.604;2023-04-01T00:30:09;4.33;;;0.70;;
4051;SDS011;2040;50.924;11.604;2023-04-01T00:32:36;1.00;;;0.70;;
4051;SDS011;2040;50.924;11.604;2023-04-01T00:35:02;3.87;;;0.90;;
4051;SDS011;2040;50.924;11.604;2023-04-01T00:37:29;3.53;;;0.80;;
4051;SDS011;2040;50.924;11.604;2023-04-01T00:39:54;4.60;;;1.50;;
4051;SDS011;2040;50.924;11.604;2023-04-01T00:42:20;1.50;;;0.60;;
4051;SDS011;2040;50.924;11.604;2023-04-01T00:44:53;2.93;;;1.30;;
4051;SDS011;2040;50.924;11.604;2023-04-01T00:47:19;4.57;;;1.07;;
4051;SDS011;2040;50.924;11.604;2023-04-01T00:49:46;0.77;;;0.70;;
4051;SDS011;2040;50.924;11.604;2023-04-01T00:52:15;3.13;;;0.60;;
4051;SDS011;2040;50.924;11.604;2023-04-01T00:54:44;1.97;;;1.33;;
4051;SDS011;2040;50.924;11.604;2023-04-01T00:57:18;3.20;;;0.73;;
4051;SDS011;2040;50.924;11.604;2023-04-01T00:59:50;8.03;;;1.43;;
4051;SDS011;2040;50.924;11.604;2023-04-01T01:02:19;0.70;;;0.70;;
4051;SDS011;2040;50.924;11.604;2023-04-01T01:04:45;8.10;;;1.20;;
4051;SDS011;2040;50.924;11.604;2023-04-01T01:07:22;2.30;;;1.00;;
4051;SDS011;2040;50.924;11.604;2023-04-01T01:15:19;1.90;;;0.87;;
4051;SDS011;2040;50.924;11.604;2023-04-01T01:29:16;1.80;;;1.10;;
4051;SDS011;2040;50.924;11.604;2023-04-01T01:34:50;1.63;;;0.80;;
4051;SDS011;2040;50.924;11.604;2023-04-01T01:37:32;4.17;;;1.40;;
4051;SDS011;2040;50.924;11.604;2023-04-01T01:40:01;3.60;;;1.13;;
4051;SDS011;2040;50.924;11.604;2023-04-01T01:42:31;0.60;;;0.60;;
4051;SDS011;2040;50.924;11.604;2023-04-01T01:45:00;4.73;;;1.00;;
4051;SDS011;2040;50.924;11.604;2023-04-01T01:47:27;6.60;;;1.17;;
4051;SDS011;2040;50.924;11.604;2023-04-01T01:49:54;1.47;;;0.90;;
4051;SDS011;2040;50.924;11.604;2023-04-01T01:52:21;1.53;;;0.87;;
4051;SDS011;2040;50.924;11.604;2023-04-01T01:54:51;3.30;;;0.90;;
4051;SDS011;2040;50.924;11.604;2023-04-01T01:57:22;1.43;;;0.90;;
4051;SDS011;2040;50.924;11.604;2023-04-01T01:59:50;0.80;;;0.80;;
4051;SDS011;2040;50.924;11.604;2023-04-01T02:02:19;1.90;;;0.70;;
4051;SDS011;2040;50.924;11.604;2023-04-01T02:04:46;2.57;;;0.90;;
4051;SDS011;2040;50.924;11.604;2023-04-01T02:07:15;1.90;;;0.83;;
4051;SDS011;2040;50.924;11.604;2023-04-01T02:09:47;2.00;;;0.90;;
4051;SDS011;2040;50.924;11.604;2023-04-01T02:12:14;3.77;;;0.90;;
4051;SDS011;2040;50.924;11.604;2023-04-01T02:14:58;0.60;;;0.60;;
4051;SDS011;2040;50.924;11.604;2023-04-01T02:17:34;4.73;;;1.00;;
4051;SDS011;2040;50.924;11.604;2023-04-01T02:20:06;4.03;;;0.83;;
4051;SDS011;2040;50.924;11.604;2023-04-01T02:22:40;1.47;;;0.80;;
4051;SDS011;2040;50.924;11.604;2023-04-01T02:25:37;3.00;;;1.10;;
4051;SDS011;2040;50.924;11.604;2023-04-01T02:28:04;5.03;;;0.90;;
4051;SDS011;2040;50.924;11.604;2023-04-01T02:30:32;1.37;;;0.70;;
4051;SDS011;2040;50.924;11.604;2023-04-01T02:33:00;1.43;;;0.90;;
4051;SDS011;2040;50.924;11.604;2023-04-01T02:35:28;1.60;;;0.80;;
4051;SDS011;2040;50.924;11.604;2023-04-01T02:37:54;1.47;;;0.80;;
4051;SDS011;2040;50.924;11.604;2023-04-01T02:40:20;2.00;;;0.70;;
4051;SDS011;2040;50.924;11.604;2023-04-01T02:42:46;0.70;;;0.70;;
4051;SDS011;2040;50.924;11.604;2023-04-01T02:45:11;1.27;;;0.70;;
4051;SDS011;2040;50.924;11.604;2023-04-01T02:47:38;0.90;;;0.80;;
4051;SDS011;2040;50.924;11.604;2023-04-01T02:50:03;4.40;;;0.70;;
4051;SDS011;2040;50.924;11.604;2023-04-01T02:52:30;1.70;;;0.70;;
4051;SDS011;2040;50.924;11.604;2023-04-01T02:54:56;1.50;;;0.93;;
4051;SDS011;2040;50.924;11.604;2023-04-01T02:57:23;1.70;;;0.70;;
4051;SDS011;2040;50.924;11.604;2023-04-01T02:59:49;1.03;;;0.60;;
4051;SDS011;2040;50.924;11.604;2023-04-01T03:02:15;6.43;;;0.80;;
4051;SDS011;2040;50.924;11.604;2023-04-01T03:04:41;1.80;;;0.93;;
4051;SDS011;2040;50.924;11.604;2023-04-01T03:07:07;0.53;;;0.50;;
4051;SDS011;2040;50.924;11.604;2023-04-01T03:09:35;1.10;;;0.77;;
4051;SDS011;2040;50.924;11.604;2023-04-01T03:12:01;1.80;;;1.07;;
4051;SDS011;2040;50.924;11.604;2023-04-01T03:14:26;0.53;;;0.53;;
4051;SDS011;2040;50.924;11.604;2023-04-01T03:16:52;3.90;;;0.67;;
4051;SDS011;2040;50.924;11.604;2023-04-01T03:19:18;2.20;;;0.73;;
4051;SDS011;2040;50.924;11.604;2023-04-01T03:21:43;3.80;;;0.97;;
4051;SDS011;2040;50.924;11.604;2023-04-01T03:24:09;1.40;;;1.30;;
4051;SDS011;2040;50.924;11.604;2023-04-01T03:26:34;0.50;;;0.50;;
4051;SDS011;2040;50.924;11.604;2023-04-01T03:29:00;0.80;;;0.63;;
4051;SDS011;2040;50.924;11.604;2023-04-01T03:31:25;1.87;;;0.70;;
4051;SDS011;2040;50.924;11.604;2023-04-01T03:33:51;3.70;;;1.20;;
4051;SDS011;2040;50.924;11.604;2023-04-01T03:36:17;2.10;;;0.50;;
4051;SDS011;2040;50.924;11.604;2023-04-01T03:38:43;0.67;;;0.67;;
4051;SDS011;2040;50.924;11.604;2023-04-01T03:41:13;0.87;;;0.70;;
4051;SDS011;2040;50.924;11.604;2023-04-01T03:43:40;0.77;;;0.70;;
4051;SDS011;2040;50.924;11.604;2023-04-01T03:46:07;1.57;;;0.60;;
4051;SDS011;2040;50.924;11.604;2023-04-01T03:48:32;2.07;;;0.90;;
4051;SDS011;2040;50.924;11.604;2023-04-01T03:50:58;0.73;;;0.50;;
4051;SDS011;2040;50.924;11.604;2023-04-01T03:53:23;1.17;;;0.70;;
4051;SDS011;2040;50.924;11.604;2023-04-01T03:55:49;0.70;;;0.70;;
4051;SDS011;2040;50.924;11.604;2023-04-01T03:58:16;2.20;;;0.60;;
4051;SDS011;2040;50.924;11.604;2023-04-01T04:00:41;0.50;;;0.50;;
4051;SDS011;2040;50.924;11.604;2023-04-01T04:03:07;2.20;;;0.63;;
4051;SDS011;2040;50.924;11.604;2023-04-01T04:05:33;0.60;;;0.60;;
4051;SDS011;2040;50.924;11.604;2023-04-01T04:07:58;0.93;;;0.70;;
4051;SDS011;2040;50.924;11.604;2023-04-01T04:10:24;1.37;;;0.77;;
4051;SDS011;2040;50.924;11.604;2023-04-01T04:12:50;2.93;;;0.97;;
4051;SDS011;2040;50.924;11.604;2023-04-01T04:15:16;2.50;;;0.60;;
4051;SDS011;2040;50.924;11.604;2023-04-01T04:17:42;1.33;;;0.60;;
4051;SDS011;2040;50.924;11.604;2023-04-01T04:20:08;3.57;;;0.80;;
4051;SDS011;2040;50.924;11.604;2023-04-01T04:22:35;2.20;;;0.60;;
4051;SDS011;2040;50.924;11.604;2023-04-01T04:25:00;0.57;;;0.57;;
4051;SDS011;2040;50.924;11.604;2023-04-01T04:27:26;0.83;;;0.70;;
4051;SDS011;2040;50.924;11.604;2023-04-01T04:29:51;2.83;;;1.20;;
4051;SDS011;2040;50.924;11.604;2023-04-01T04:32:17;0.70;;;0.60;;
4051;SDS011;2040;50.924;11.604;2023-04-01T04:34:42;1.33;;;0.73;;
4051;SDS011;2040;50.924;11.604;2023-04-01T04:37:08;0.73;;;0.53;;
4051;SDS011;2040;50.924;11.604;2023-04-01T04:39:33;1.23;;;0.77;;
4051;SDS011;2040;50.924;11.604;2023-04-01T04:41:59;3.43;;;0.90;;
4051;SDS011;2040;50.924;11.604;2023-04-01T04:44:25;2.57;;;0.73;;
4051;SDS011;2040;50.924;11.604;2023-04-01T04:46:50;6.03;;;0.87;;
4051;SDS011;2040;50.924;11.604;2023-04-01T04:49:16;0.87;;;0.83;;
4051;SDS011;2040;50.924;11.604;2023-04-01T04:51:42;2.20;;;0.60;;
4051;SDS011;2040;50.924;11.604;2023-04-01T04:54:07;3.97;;;1.17;;
4051;SDS011;2040;50.924;11.604;2023-04-01T04:56:33;2.90;;;1.20;;
4051;SDS011;2040;50.924;11.604;2023-04-01T04:58:58;1.60;;;0.80;;
4051;SDS011;2040;50.924;11.604;2023-04-01T05:01:24;1.93;;;0.70;;
4051;SDS011;2040;50.924;11.604;2023-04-01T05:03:50;4.83;;;0.70;;
4051;SDS011;2040;50.924;11.604;2023-04-01T05:06:16;1.40;;;0.93;;
4051;SDS011;2040;50.924;11.604;2023-04-01T05:08:43;8.03;;;0.80;;
4051;SDS011;2040;50.924;11.604;2023-04-01T05:11:10;0.83;;;0.70;;
4051;SDS011;2040;50.924;11.604;2023-04-01T05:13:38;4.00;;;0.90;;
4051;SDS011;2040;50.924;11.604;2023-04-01T05:16:07;2.13;;;0.60;;
4051;SDS011;2040;50.924;11.604;2023-04-01T05:18:36;0.87;;;0.60;;
4051;SDS011;2040;50.924;11.604;2023-04-01T05:21:02;1.97;;;0.80;;
4051;SDS011;2040;50.924;11.604;2023-04-01T05:23:30;0.83;;;0.77;;
4051;SDS011;2040;50.924;11.604;2023-04-01T05:25:56;3.77;;;1.37;;
4051;SDS011;2040;50.924;11.604;2023-04-01T05:28:22;1.73;;;0.60;;
4051;SDS011;2040;50.924;11.604;2023-04-01T05:30:48;0.97;;;0.57;;
4051;SDS011;2040;50.924;11.604;2023-04-01T05:33:13;0.93;;;0.93;;
4051;SDS011;2040;50.924;11.604;2023-04-01T05:35:40;2.60;;;0.67;;
4051;SDS011;2040;50.924;11.604;2023-04-01T05:38:06;2.23;;;0.80;;
4051;SDS011;2040;50.924;11.604;2023-04-01T05:40:32;1.60;;;0.60;;
4051;SDS011;2040;50.924;11.604;2023-04-01T05:42:59;2.10;;;0.90;;
4051;SDS011;2040;50.924;11.604;2023-04-01T05:45:25;5.53;;;0.80;;
4051;SDS011;2040;50.924;11.604;2023-04-01T05:47:51;2.20;;;0.60;;
4051;SDS011;2040;50.924;11.604;2023-04-01T05:50:16;0.70;;;0.70;;
4051;SDS011;2040;50.924;11.604;2023-04-01T05:52:42;0.90;;;0.80;;
4051;SDS011;2040;50.924;11.604;2023-04-01T05:55:08;0.60;;;0.50;;
4051;SDS011;2040;50.924;11.604;2023-04-01T05:57:33;3.90;;;1.00;;
4051;SDS011;2040;50.924;11.604;2023-04-01T05:59:59;4.53;;;0.70;;
4051;SDS011;2040;50.924;11.604;2023-04-01T06:02:25;1.93;;;0.63;;
4051;SDS011;2040;50.924;11.604;2023-04-01T06:04:53;2.13;;;0.70;;
4051;SDS011;2040;50.924;11.604;2023-04-01T06:07:36;0.60;;;0.60;;
4051;SDS011;2040;50.924;11.604;2023-04-01T06:10:05;1.03;;;0.73;;
4051;SDS011;2040;50.924;11.604;2023-04-01T06:12:40;1.13;;;0.70;;
4051;SDS011;2040;50.924;11.604;2023-04-01T06:15:25;1.20;;;0.70;;
4051;SDS011;2040;50.924;11.604;2023-04-01T06:20:46;3.33;;;1.03;;
4051;SDS011;2040;50.924;11.604;2023-04-01T06:26:03;4.00;;;0.70;;
4051;SDS011;2040;50.924;11.604;2023-04-01T06:28:56;3.00;;;0.57;;
4051;SDS011;2040;50.924;11.604;2023-04-01T06:36:54;3.50;;;0.93;;
4051;SDS011;2040;50.924;11.604;2023-04-01T06:39:43;3.33;;;0.60;;
4051;SDS011;2040;50.924;11.604;2023-04-01T06:45:28;2.20;;;0.70;;
4051;SDS011;2040;50.924;11.604;2023-04-01T06:56:29;4.43;;;0.60;;
4051;SDS011;2040;50.924;11.604;2023-04-01T06:59:18;0.60;;;0.60;;
4051;SDS011;2040;50.924;11.604;2023-04-01T07:01:54;0.50;;;0.50;;
4051;SDS011;2040;50.924;11.604;2023-04-01T07:04:26;0.73;;;0.70;;
4051;SDS011;2040;50.924;11.604;2023-04-01T07:06:57;4.43;;;0.80;;
4051;SDS011;2040;50.924;11.604;2023-04-01T07:09:33;2.83;;;1.17;;
4051;SDS011;2040;50.924;11.604;2023-04-01T07:12:02;0.70;;;0.70;;
4051;SDS011;2040;50.924;11.604;2023-04-01T07:14:37;1.53;;;0.77;;
4051;SDS011;2040;50.924;11.604;2023-04-01T07:19:42;4.77;;;0.83;;
4051;SDS011;2040;50.924;11.604;2023-04-01T07:22:39;0.60;;;0.50;;
4051;SDS011;2040;50.924;11.604;2023-04-01T07:25:13;1.10;;;0.80;;
4051;SDS011;2040;50.924;11.604;2023-04-01T07:27:46;2.23;;;0.80;;
4051;SDS011;2040;50.924;11.604;2023-04-01T07:30:19;0.60;;;0.60;;
4051;SDS011;2040;50.924;11.604;2023-04-01T07:35:58;3.33;;;1.00;;
4051;SDS011;2040;50.924;11.604;2023-04-01T07:41:11;1.33;;;0.73;;
4051;SDS011;2040;50.924;11.604;2023-04-01T07:43:53;0.70;;;0.70;;
4051;SDS011;2040;50.924;11.604;2023-04-01T07:54:32;0.83;;;0.50;;
4051;SDS011;2040;50.924;11.604;2023-04-01T07:59:51;0.67;;;0.67;;
4051;SDS011;2040;50.924;11.604;2023-04-01T08:05:08;1.20;;;0.53;;
4051;SDS011;2040;50.924;11.604;2023-04-01T08:07:52;0.90;;;0.60;;
4051;SDS011;2040;50.924;11.604;2023-04-01T08:13:14;0.93;;;0.70;;
4051;SDS011;2040;50.924;11.604;2023-04-01T08:15:57;0.60;;;0.60;;
4051;SDS011;2040;50.924;11.604;2023-04-01T08:21:44;0.50;;;0.50;;
4051;SDS011;2040;50.924;11.604;2023-04-01T08:27:51;0.57;;;0.57;;
4051;SDS011;2040;50.924;11.604;2023-04-01T08:30:03;3.80;;;0.70;;
4051;SDS011;2040;50.924;11.604;2023-04-01T08:32:50;1.83;;;0.50;;
4051;SDS011;2040;50.924;11.604;2023-04-01T08:35:37;5.90;;;0.67;;
4051;SDS011;2040;50.924;11.604;2023-04-01T08:38:13;1.23;;;0.73;;
4051;SDS011;2040;50.924;11.604;2023-04-01T08:41:03;0.50;;;0.50;;
4051;SDS011;2040;50.924;11.604;2023-04-01T08:43:43;0.57;;;0.50;;
4051;SDS011;2040;50.924;11.604;2023-04-01T09:00:54;0.43;;;0.43;;
4051;SDS011;2040;50.924;11.604;2023-04-01T09:06:02;0.83;;;0.53;;
4051;SDS011;2040;50.924;11.604;2023-04-01T09:12:19;1.10;;;0.50;;
4051;SDS011;2040;50.924;11.604;2023-04-01T09:18:00;1.43;;;0.60;;
4051;SDS011;2040;50.924;11.604;2023-04-01T09:21:11;1.33;;;0.60;;
4051;SDS011;2040;50.924;11.604;2023-04-01T09:29:18;0.60;;;0.47;;
4051;SDS011;2040;50.924;11.604;2023-04-01T09:32:24;0.70;;;0.67;;
4051;SDS011;2040;50.924;11.604;2023-04-01T09:46:06;0.67;;;0.67;;
4051;SDS011;2040;50.924;11.604;2023-04-01T09:54:13;1.27;;;0.70;;
4051;SDS011;2040;50.924;11.604;2023-04-01T09:59:24;1.37;;;0.70;;
4051;SDS011;2040;50.924;11.604;2023-04-01T10:24:20;3.77;;;0.70;;
4051;SDS011;2040;50.924;11.604;2023-04-01T10:27:11;0.93;;;0.70;;
4051;SDS011;2040;50.924;11.604;2023-04-01T10:32:34;0.50;;;0.50;;
4051;SDS011;2040;50.924;11.604;2023-04-01T10:40:50;0.50;;;0.50;;
4051;SDS011;2040;50.924;11.604;2023-04-01T10:43:33;0.50;;;0.50;;
4051;SDS011;2040;50.924;11.604;2023-04-01T11:11:47;0.90;;;0.47;;
4051;SDS011;2040;50.924;11.604;2023-04-01T11:23:31;1.50;;;0.73;;
4051;SDS011;2040;50.924;11.604;2023-04-01T11:43:21;1.27;;;0.67;;
4051;SDS011;2040;50.924;11.604;2023-04-01T11:52:09;0.67;;;0.67;;
4051;SDS011;2040;50.924;11.604;2023-04-01T11:54:51;1.57;;;0.77;;
4051;SDS011;2040;50.924;11.604;2023-04-01T12:00:34;2.10;;;0.63;;
4051;SDS011;2040;50.924;11.604;2023-04-01T12:06:22;0.90;;;0.60;;
4051;SDS011;2040;50.924;11.604;2023-04-01T12:14:53;2.00;;;1.03;;
4051;SDS011;2040;50.924;11.604;2023-04-01T12:17:46;0.63;;;0.63;;
4051;SDS011;2040;50.924;11.604;2023-04-01T12:32:15;0.50;;;0.50;;
4051;SDS011;2040;50.924;11.604;2023-04-01T12:40:24;4.63;;;0.50;;
4051;SDS011;2040;50.924;11.604;2023-04-01T12:43:21;0.77;;;0.70;;
4051;SDS011;2040;50.924;11.604;2023-04-01T12:45:59;1.73;;;0.63;;
4051;SDS011;2040;50.924;11.604;2023-04-01T12:57:03;2.93;;;0.90;;
4051;SDS011;2040;50.924;11.604;2023-04-01T13:02:50;1.40;;;0.97;;
4051;SDS011;2040;50.924;11.604;2023-04-01T13:17:41;0.50;;;0.50;;
4051;SDS011;2040;50.924;11.604;2023-04-01T13:20:19;0.60;;;0.60;;
4051;SDS011;2040;50.924;11.604;2023-04-01T13:28:26;0.50;;;0.50;;
4051;SDS011;2040;50.924;11.604;2023-04-01T13:33:58;0.50;;;0.50;;
4051;SDS011;2040;50.924;11.604;2023-04-01T13:42:24;0.73;;;0.67;;
4051;SDS011;2040;50.924;11.604;2023-04-01T13:52:53;0.50;;;0.50;;
4051;SDS011;2040;50.924;11.604;2023-04-01T13:55:46;0.40;;;0.40;;
4051;SDS011;2040;50.924;11.604;2023-04-01T14:01:15;1.60;;;1.23;;
4051;SDS011;2040;50.924;11.604;2023-04-01T14:06:49;0.70;;;0.60;;
4051;SDS011;2040;50.924;11.604;2023-04-01T14:26:04;1.77;;;0.80;;
4051;SDS011;2040;50.924;11.604;2023-04-01T14:34:26;0.83;;;0.63;;
4051;SDS011;2040;50.924;11.604;2023-04-01T14:45:59;0.50;;;0.50;;
4051;SDS011;2040;50.924;11.604;2023-04-01T14:49:02;0.87;;;0.63;;
4051;SDS011;2040;50.924;11.604;2023-04-01T14:51:39;0.60;;;0.60;;
4051;SDS011;2040;50.924;11.604;2023-04-01T14:54:12;0.87;;;0.60;;
4051;SDS011;2040;50.924;11.604;2023-04-01T14:56:48;0.60;;;0.60;;
4051;SDS011;2040;50.924;11.604;2023-04-01T14:59:34;0.70;;;0.60;;
4051;SDS011;2040;50.924;11.604;2023-04-01T15:02:12;0.50;;;0.50;;
4051;SDS011;2040;50.924;11.604;2023-04-01T15:10:53;0.73;;;0.70;;
4051;SDS011;2040;50.924;11.604;2023-04-01T15:16:25;0.70;;;0.70;;
4051;SDS011;2040;50.924;11.604;2023-04-01T15:22:09;0.50;;;0.50;;
4051;SDS011;2040;50.924;11.604;2023-04-01T15:30:35;3.23;;;0.70;;
4051;SDS011;2040;50.924;11.604;2023-04-01T15:33:17;0.60;;;0.60;;
4051;SDS011;2040;50.924;11.604;2023-04-01T15:43:40;0.80;;;0.60;;
4051;SDS011;2040;50.924;11.604;2023-04-01T15:49:08;0.67;;;0.60;;
4051;SDS011;2040;50.924;11.604;2023-04-01T15:54:50;0.70;;;0.60;;
4051;SDS011;2040;50.924;11.604;2023-04-01T15:57:23;0.60;;;0.60;;
4051;SDS011;2040;50.924;11.604;2023-04-01T16:08:23;0.43;;;0.43;;
4051;SDS011;2040;50.924;11.604;2023-04-01T16:10:58;0.60;;;0.50;;
4051;SDS011;2040;50.924;11.604;2023-04-01T16:16:23;0.60;;;0.60;;
4051;SDS011;2040;50.924;11.604;2023-04-01T16:19:20;2.03;;;0.90;;
4051;SDS011;2040;50.924;11.604;2023-04-01T16:22:06;0.93;;;0.57;;
4051;SDS011;2040;50.924;11.604;2023-04-01T16:25:20;1.40;;;0.70;;
4051;SDS011;2040;50.924;11.604;2023-04-01T16:33:20;0.60;;;0.60;;
4051;SDS011;2040;50.924;11.604;2023-04-01T16:36:01;1.00;;;0.70;;
4051;SDS011;2040;50.924;11.604;2023-04-01T16:39:01;1.10;;;0.70;;
4051;SDS011;2040;50.924;11.604;2023-04-01T16:41:30;1.27;;;0.77;;
4051;SDS011;2040;50.924;11.604;2023-04-01T16:44:08;3.40;;;1.13;;
4051;SDS011;2040;50.924;11.604;2023-04-01T16:47:26;3.73;;;1.10;;
4051;SDS011;2040;50.924;11.604;2023-04-01T16:49:37;1.00;;;0.80;;
4051;SDS011;2040;50.924;11.604;2023-04-01T16:54:53;1.20;;;0.90;;
4051;SDS011;2040;50.924;11.604;2023-04-01T16:57:47;4.93;;;0.90;;
4051;SDS011;2040;50.924;11.604;2023-04-01T17:00:26;4.50;;;0.80;;
4051;SDS011;2040;50.924;11.604;2023-04-01T17:03:04;1.07;;;0.83;;
4051;SDS011;2040;50.924;11.604;2023-04-01T17:09:02;1.37;;;0.90;;
4051;SDS011;2040;50.924;11.604;2023-04-01T17:11:34;0.63;;;0.60;;
4051;SDS011;2040;50.924;11.604;2023-04-01T17:14:12;0.90;;;0.70;;
4051;SDS011;2040;50.924;11.604;2023-04-01T17:16:54;1.00;;;0.90;;
4051;SDS011;2040;50.924;11.604;2023-04-01T17:28:16;0.80;;;0.80;;
4051;SDS011;2040;50.924;11.604;2023-04-01T17:31:12;0.70;;;0.70;;
4051;SDS011;2040;50.924;11.604;2023-04-01T17:36:16;1.00;;;0.90;;
4051;SDS011;2040;50.924;11.604;2023-04-01T17:39:19;0.70;;;0.70;;
4051;SDS011;2040;50.924;11.604;2023-04-01T17:46:56;1.83;;;1.00;;
4051;SDS011;2040;50.924;11.604;2023-04-01T17:52:42;0.70;;;0.63;;
4051;SDS011;2040;50.924;11.604;2023-04-01T17:55:22;0.60;;;0.60;;
4051;SDS011;2040;50.924;11.604;2023-04-01T18:08:58;15.83;;;8.37;;
4051;SDS011;2040;50.924;11.604;2023-04-01T18:16:59;21.97;;;10.00;;
4051;SDS011;2040;50.924;11.604;2023-04-01T18:19:43;35.80;;;19.30;;
4051;SDS011;2040;50.924;11.604;2023-04-01T18:22:47;8.83;;;5.40;;
4051;SDS011;2040;50.924;11.604;2023-04-01T18:25:35;4.40;;;2.73;;
4051;SDS011;2040;50.924;11.604;2023-04-01T18:36:25;11.03;;;6.93;;
4051;SDS011;2040;50.924;11.604;2023-04-01T18:39:17;25.17;;;10.47;;
4051;SDS011;2040;50.924;11.604;2023-04-01T18:42:00;9.70;;;6.30;;
4051;SDS011;2040;50.924;11.604;2023-04-01T18:44:46;5.20;;;3.70;;
4051;SDS011;2040;50.924;11.604;2023-04-01T18:50:22;8.60;;;6.80;;
4051;SDS011;2040;50.924;11.604;2023-04-01T18:52:51;4.27;;;3.00;;
4051;SDS011;2040;50.924;11.604;2023-04-01T18:55:31;5.27;;;4.07;;
4051;SDS011;2040;50.924;11.604;2023-04-01T19:01:01;4.93;;;3.87;;
4051;SDS011;2040;50.924;11.604;2023-04-01T19:09:17;4.50;;;2.43;;
4051;SDS011;2040;50.924;11.604;2023-04-01T19:12:20;5.40;;;2.90;;
4051;SDS011;2040;50.924;11.604;2023-04-01T19:15:07;5.60;;;4.03;;
4051;SDS011;2040;50.924;11.604;2023-04-01T19:17:58;4.53;;;3.20;;
4051;SDS011;2040;50.924;11.604;2023-04-01T19:20:46;2.50;;;2.17;;
4051;SDS011;2040;50.924;11.604;2023-04-01T19:23:40;1.93;;;1.70;;
4051;SDS011;2040;50.924;11.604;2023-04-01T19:26:22;5.03;;;3.10;;
4051;SDS011;2040;50.924;11.604;2023-04-01T19:37:45;2.50;;;2.30;;
4051;SDS011;2040;50.924;11.604;2023-04-01T19:43:47;3.20;;;2.40;;
4051;SDS011;2040;50.924;11.604;2023-04-01T19:46:51;2.60;;;2.30;;
4051;SDS011;2040;50.924;11.604;2023-04-01T20:00:27;6.73;;;3.13;;
4051;SDS011;2040;50.924;11.604;2023-04-01T20:06:19;10.53;;;4.43;;
4051;SDS011;2040;50.924;11.604;2023-04-01T20:12:05;10.27;;;3.40;;
4051;SDS011;2040;50.924;11.604;2023-04-01T20:14:49;9.77;;;2.90;;
4051;SDS011;2040;50.924;11.604;2023-04-01T20:25:15;3.40;;;2.40;;
4051;SDS011;2040;50.924;11.604;2023-04-01T20:27:49;4.00;;;2.60;;
4051;SDS011;2040;50.924;11.604;2023-04-01T20:49:58;5.83;;;3.10;;
4051;SDS011;2040;50.924;11.604;2023-04-01T20:52:42;6.63;;;3.00;;
4051;SDS011;2040;50.924;11.604;2023-04-01T20:55:21;7.53;;;4.50;;
4051;SDS011;2040;50.924;11.604;2023-04-01T20:58:08;12.90;;;5.60;;
4051;SDS011;2040;50.924;11.604;2023-04-01T21:00:45;10.40;;;5.00;;
4051;SDS011;2040;50.924;11.604;2023-04-01T21:03:49;12.50;;;5.90;;
4051;SDS011;2040;50.924;11.604;2023-04-01T21:14:50;15.07;;;6.50;;
4051;SDS011;2040;50.924;11.604;2023-04-01T21:29:06;3.80;;;2.83;;
4051;SDS011;2040;50.924;11.604;2023-04-01T21:34:34;3.30;;;2.50;;
4051;SDS011;2040;50.924;11.604;2023-04-01T21:44:38;3.20;;;2.07;;
4051;SDS011;2040;50.924;11.604;2023-04-01T21:47:24;2.47;;;2.03;;
4051;SDS011;2040;50.924;11.604;2023-04-01T21:53:26;2.40;;;1.73;;
4051;SDS011;2040;50.924;11.604;2023-04-01T21:59:16;2.40;;;1.97;;
4051;SDS011;2040;50.924;11.604;2023-04-01T22:05:19;3.53;;;2.20;;
4051;SDS011;2040;50.924;11.604;2023-04-01T22:08:03;3.60;;;2.40;;
4051;SDS011;2040;50.924;11.604;2023-04-01T22:10:47;2.80;;;2.00;;
4051;SDS011;2040;50.924;11.604;2023-04-01T22:13:29;4.20;;;2.23;;
4051;SDS011;2040;50.924;11.604;2023-04-01T22:16:01;4.10;;;2.73;;
4051;SDS011;2040;50.924;11.604;2023-04-01T22:21:27;4.20;;;2.70;;
4051;SDS011;2040;50.924;11.604;2023-04-01T22:27:03;3.77;;;2.70;;
4051;SDS011;2040;50.924;11.604;2023-04-01T22:32:24;3.10;;;2.33;;
4051;SDS011;2040;50.924;11.604;2023-04-01T22:35:06;4.73;;;3.73;;
4051;SDS011;2040;50.924;11.604;2023-04-01T22:37:58;4.70;;;3.50;;
4051;SDS011;2040;50.924;11.604;2023-04-01T22:40:46;6.37;;;3.90;;
4051;SDS011;2040;50.924;11.604;2023-04-01T22:43:32;6.23;;;3.93;;
4051;SDS011;2040;50.924;11.604;2023-04-01T22:48:49;6.40;;;3.67;;
4051;SDS011;2040;50.924;11.604;2023-04-01T22:51:45;5.00;;;3.30;;
4051;SDS011;2040;50.924;11.604;2023-04-01T22:57:00;3.60;;;2.97;;
4051;SDS011;2040;50.924;11.604;2023-04-01T23:00:08;6.87;;;3.00;;
4051;SDS011;2040;50.924;11.604;2023-04-01T23:02:42;6.73;;;4.17;;
4051;SDS011;2040;50.924;11.604;2023-04-01T23:05:13;5.70;;;4.07;;
4051;SDS011;2040;50.924;11.604;2023-04-01T23:07:45;3.90;;;2.60;;
4051;SDS011;2040;50.924;11.604;2023-04-01T23:10:30;4.63;;;3.00;;
4051;SDS011;2040;50.924;11.604;2023-04-01T23:13:05;3.53;;;2.43;;
4051;SDS011;2040;50.924;11.604;2023-04-01T23:15:40;4.53;;;3.00;;
4051;SDS011;2040;50.924;11.604;2023-04-01T23:26:04;3.40;;;2.33;;
4051;SDS011;2040;50.924;11.604;2023-04-01T23:28:45;6.97;;;3.10;;
4051;SDS011;2040;50.924;11.604;2023-04-01T23:31:24;5.23;;;3.23;;
4051;SDS011;2040;50.924;11.604;2023-04-01T23:39:30;4.37;;;3.13;;
4051;SDS011;2040;50.924;11.604;2023-04-01T23:42:06;4.03;;;2.50;;
4051;SDS011;2040;50.924;11.604;2023-04-01T23:44:37;5.40;;;3.37;;
4051;SDS011;2040;50.924;11.604;2023-04-01T23:47:04;4.00;;;2.83;;
4051;SDS011;2040;50.924;11.604;2023-04-01T23:49:38;3.80;;;2.43;;
4051;SDS011;2040;50.924;11.604;2023-04-01T23:52:17;5.07;;;3.27;;
4051;SDS011;2040;50.924;11.604;2023-04-01T23:54:54;5.50;;;3.23;;
4051;SDS011;2040;50.924;11.604;2023-04-01T23:57:26;8.63;;;3.33;;
